createdAt,value
2017-05-07T00:01:21.689Z,40.90
2017-05-07T00:03:49.386Z,37.70
2017-05-07T00:06:17.005Z,40.55
2017-05-07T00:08:44.615Z,37.28
2017-05-07T00:11:12.130Z,32.68
2017-05-07T00:13:40.046Z,33.35
2017-05-07T00:16:08.357Z,38.25
2017-05-07T00:18:36.214Z,33.02
2017-05-07T00:21:03.865Z,34.68
2017-05-07T00:23:31.510Z,32.50
2017-05-07T00:25:59.061Z,34.57
2017-05-07T00:28:27.338Z,39.25
2017-05-07T00:30:55.623Z,33.05
2017-05-07T00:33:23.883Z,31.23
2017-05-07T00:35:51.403Z,34.67
2017-05-07T00:38:19.121Z,34.60
2017-05-07T00:40:47.412Z,34.22
2017-05-07T00:43:14.951Z,34.27
2017-05-07T00:45:43.283Z,32.83
2017-05-07T00:48:10.775Z,35.13
2017-05-07T00:50:39.086Z,39.57
2017-05-07T00:53:06.859Z,38.32
2017-05-07T00:55:34.428Z,32.97
2017-05-07T00:58:03.047Z,34.12
2017-05-07T01:00:30.584Z,30.45
2017-05-07T01:02:58.085Z,32.52
2017-05-07T01:05:25.607Z,31.33
2017-05-07T01:07:53.151Z,31.48
2017-05-07T01:10:20.911Z,32.63
2017-05-07T01:12:48.463Z,35.52
2017-05-07T01:15:15.979Z,38.23
2017-05-07T01:17:43.721Z,40.92
2017-05-07T01:20:11.275Z,37.22
2017-05-07T01:22:39.591Z,41.37
2017-05-07T01:25:07.099Z,36.77
2017-05-07T01:27:35.409Z,36.47
2017-05-07T01:30:02.927Z,39.60
2017-05-07T01:32:30.445Z,41.30
2017-05-07T01:34:57.952Z,44.35
2017-05-07T01:37:26.261Z,41.10
2017-05-07T01:39:54.054Z,41.40
2017-05-07T01:42:21.581Z,44.87
2017-05-07T01:44:49.133Z,42.20
2017-05-07T01:47:16.905Z,46.50
2017-05-07T01:49:44.408Z,41.95
2017-05-07T01:52:12.007Z,41.18
2017-05-07T01:54:39.507Z,45.08
2017-05-07T01:57:07.068Z,40.37
2017-05-07T01:59:34.576Z,39.30
2017-05-07T02:02:02.149Z,40.67
2017-05-07T02:04:29.892Z,39.72
2017-05-07T02:06:57.412Z,34.62
2017-05-07T02:09:25.032Z,42.13
2017-05-07T02:11:52.559Z,39.47
2017-05-07T02:14:21.115Z,36.85
2017-05-07T02:16:48.677Z,37.30
2017-05-07T02:19:16.514Z,29.72
2017-05-07T02:21:44.077Z,30.32
2017-05-07T02:24:11.596Z,29.72
2017-05-07T02:26:39.160Z,34.63
2017-05-07T02:29:06.747Z,43.80
2017-05-07T02:31:34.255Z,40.65
2017-05-07T02:34:02.003Z,41.60
2017-05-07T02:36:30.271Z,38.58
2017-05-07T02:38:58.757Z,35.25
2017-05-07T02:41:26.540Z,30.75
2017-05-07T02:43:54.327Z,33.22
2017-05-07T02:46:22.059Z,34.45
2017-05-07T02:48:49.580Z,34.42
2017-05-07T02:51:17.331Z,35.37
2017-05-07T02:53:44.865Z,33.07
2017-05-07T02:56:12.613Z,36.63
2017-05-07T02:58:40.141Z,34.70
2017-05-07T03:01:08.484Z,34.90
2017-05-07T03:03:36.089Z,38.73
2017-05-07T03:06:03.588Z,37.35
2017-05-07T03:08:31.113Z,31.92
2017-05-07T03:10:58.624Z,36.72
2017-05-07T03:13:26.230Z,34.03
2017-05-07T03:15:53.983Z,35.38
2017-05-07T03:18:21.554Z,37.30
2017-05-07T03:20:49.198Z,28.32
2017-05-07T03:23:16.741Z,31.02
2017-05-07T03:25:45.009Z,33.10
2017-05-07T03:28:13.505Z,27.83
2017-05-07T03:30:41.029Z,34.43
2017-05-07T03:33:08.564Z,31.25
2017-05-07T03:35:36.088Z,31.00
2017-05-07T03:38:03.826Z,31.30
2017-05-07T03:40:32.189Z,31.40
2017-05-07T03:42:59.730Z,29.30
2017-05-07T03:45:27.298Z,31.95
2017-05-07T03:47:54.792Z,34.73
2017-05-07T03:50:22.368Z,30.73
2017-05-07T03:52:49.876Z,31.42
2017-05-07T03:55:17.763Z,35.98
2017-05-07T03:57:45.306Z,32.75
2017-05-07T04:00:13.596Z,43.33
2017-05-07T04:02:41.089Z,33.85
2017-05-07T04:05:08.654Z,37.02
2017-05-07T04:07:36.216Z,40.67
2017-05-07T04:10:03.744Z,36.75
2017-05-07T04:12:31.247Z,39.28
2017-05-07T04:14:58.828Z,42.85
2017-05-07T04:17:27.213Z,33.78
2017-05-07T04:19:54.802Z,35.38
2017-05-07T04:22:22.355Z,36.98
2017-05-07T04:24:50.006Z,39.98
2017-05-07T04:27:17.539Z,43.77
2017-05-07T04:29:45.804Z,53.18
2017-05-07T04:32:14.093Z,55.45
2017-05-07T04:34:42.416Z,50.37
2017-05-07T04:37:09.999Z,47.58
2017-05-07T04:39:37.535Z,45.48
2017-05-07T04:42:05.096Z,45.90
2017-05-07T04:44:32.879Z,50.15
2017-05-07T04:47:00.459Z,40.78
2017-05-07T04:49:28.719Z,45.48
2017-05-07T04:51:56.243Z,44.47
2017-05-07T04:54:23.779Z,46.75
2017-05-07T04:56:51.363Z,48.67
2017-05-07T04:59:19.105Z,47.88
2017-05-07T05:01:46.644Z,55.82
2017-05-07T05:04:14.214Z,55.32
2017-05-07T05:06:41.792Z,50.92
2017-05-07T05:09:10.047Z,53.07
2017-05-07T05:11:37.814Z,48.70
2017-05-07T05:14:05.992Z,54.12
2017-05-07T05:16:33.567Z,58.00
2017-05-07T05:19:15.987Z,58.82
2017-05-07T05:25:05.242Z,62.40
2017-05-07T05:27:47.677Z,51.27
2017-05-07T05:30:30.193Z,61.27
2017-05-07T05:32:58.020Z,56.97
2017-05-07T05:35:26.640Z,54.32
2017-05-07T05:37:54.467Z,58.22
2017-05-07T05:40:22.922Z,58.43
2017-05-07T05:42:51.232Z,55.87
2017-05-07T05:45:19.511Z,53.10
2017-05-07T05:47:47.827Z,54.40
2017-05-07T05:50:16.124Z,53.90
2017-05-07T05:52:43.630Z,52.67
2017-05-07T05:55:11.159Z,59.98
2017-05-07T05:57:38.729Z,56.33
2017-05-07T06:00:06.274Z,58.45
2017-05-07T06:02:33.815Z,56.07
2017-05-07T06:05:01.373Z,51.05
2017-05-07T06:07:30.471Z,53.48
2017-05-07T06:09:58.091Z,51.82
2017-05-07T06:12:26.431Z,48.50
2017-05-07T06:14:54.004Z,50.48
2017-05-07T06:17:21.606Z,45.33
2017-05-07T06:19:49.402Z,43.50
2017-05-07T06:22:16.919Z,51.35
2017-05-07T06:24:44.432Z,45.60
2017-05-07T06:27:12.013Z,46.90
2017-05-07T06:29:39.836Z,51.30
2017-05-07T06:32:07.375Z,49.12
2017-05-07T06:34:34.887Z,44.67
2017-05-07T06:37:02.465Z,49.42
2017-05-07T06:39:30.028Z,47.72
2017-05-07T06:41:58.369Z,53.83
2017-05-07T06:44:25.976Z,47.75
2017-05-07T06:46:53.743Z,52.40
2017-05-07T06:49:22.011Z,44.30
2017-05-07T06:51:49.544Z,48.15
2017-05-07T06:54:18.105Z,51.82
2017-05-07T06:56:45.695Z,53.35
2017-05-07T06:59:14.000Z,60.88
2017-05-07T07:01:41.552Z,45.22
2017-05-07T07:04:09.116Z,51.10
2017-05-07T07:06:36.984Z,52.08
2017-05-07T07:09:05.340Z,53.87
2017-05-07T07:11:32.884Z,52.57
2017-05-07T07:14:00.707Z,47.48
2017-05-07T07:16:28.319Z,41.92
2017-05-07T07:18:55.854Z,43.22
2017-05-07T07:21:24.155Z,39.53
2017-05-07T07:23:52.443Z,38.90
2017-05-07T07:26:20.036Z,44.00
2017-05-07T07:28:47.643Z,36.43
2017-05-07T07:31:15.913Z,36.45
2017-05-07T07:33:43.447Z,37.40
2017-05-07T07:36:12.106Z,35.88
2017-05-07T07:38:40.778Z,24.78
2017-05-07T07:41:09.346Z,28.00
2017-05-07T07:43:36.990Z,24.80
2017-05-07T07:46:04.496Z,22.92
2017-05-07T07:48:32.023Z,26.67
2017-05-07T07:51:00.606Z,27.85
2017-05-07T07:53:28.194Z,25.08
2017-05-07T07:55:56.508Z,29.00
2017-05-07T07:58:25.913Z,26.12
2017-05-07T08:00:53.440Z,26.72
2017-05-07T08:03:21.998Z,27.27
2017-05-07T08:05:50.299Z,26.25
2017-05-07T08:08:17.857Z,22.62
2017-05-07T08:10:47.119Z,24.03
2017-05-07T08:13:15.691Z,27.83
2017-05-07T08:15:44.024Z,26.85
2017-05-07T08:18:11.532Z,29.33
2017-05-07T08:20:40.096Z,28.58
2017-05-07T08:23:07.616Z,29.83
2017-05-07T08:25:36.283Z,30.65
2017-05-07T08:28:04.593Z,27.70
2017-05-07T08:30:32.128Z,30.10
2017-05-07T08:33:00.399Z,28.65
2017-05-07T08:35:28.927Z,28.92
2017-05-07T08:37:56.516Z,26.57
2017-05-07T08:40:25.527Z,22.92
2017-05-07T08:42:53.836Z,25.40
2017-05-07T08:45:22.180Z,34.42
2017-05-07T08:47:50.504Z,21.15
2017-05-07T08:50:18.001Z,21.70
2017-05-07T08:52:45.581Z,25.87
2017-05-07T08:55:14.124Z,28.37
2017-05-07T08:57:43.155Z,27.93
2017-05-07T09:00:10.687Z,24.77
2017-05-07T09:02:39.047Z,26.27
2017-05-07T09:05:06.583Z,19.33
2017-05-07T09:07:34.111Z,21.00
2017-05-07T09:10:01.621Z,21.22
2017-05-07T09:12:47.890Z,19.00
2017-05-07T09:15:45.148Z,23.75
2017-05-07T09:18:35.237Z,20.82
2017-05-07T09:21:03.543Z,20.40
2017-05-07T09:23:31.834Z,22.95
2017-05-07T09:25:59.440Z,24.43
2017-05-07T09:28:26.994Z,22.40
2017-05-07T09:30:55.303Z,24.83
2017-05-07T09:33:22.927Z,23.57
2017-05-07T09:35:50.483Z,30.15
2017-05-07T09:38:18.188Z,31.63
2017-05-07T09:40:46.526Z,26.62
2017-05-07T09:43:14.653Z,25.13
2017-05-07T09:45:43.084Z,26.27
2017-05-07T09:48:10.652Z,28.20
2017-05-07T09:50:38.229Z,24.50
2017-05-07T09:53:06.771Z,25.60
2017-05-07T09:55:35.072Z,26.28
2017-05-07T09:58:04.504Z,21.62
2017-05-07T10:00:34.051Z,23.83
2017-05-07T10:03:02.357Z,19.93
2017-05-07T10:05:32.212Z,23.88
2017-05-07T10:07:59.723Z,21.53
2017-05-07T10:10:27.271Z,20.68
2017-05-07T10:12:56.323Z,21.43
2017-05-07T10:15:24.309Z,23.52
2017-05-07T10:17:52.579Z,24.42
2017-05-07T10:20:20.143Z,24.97
2017-05-07T10:22:47.650Z,21.00
2017-05-07T10:25:17.113Z,25.15
2017-05-07T10:27:44.635Z,18.73
2017-05-07T10:30:13.295Z,17.28
2017-05-07T10:32:42.331Z,18.62
2017-05-07T10:35:09.855Z,18.47
2017-05-07T10:37:38.507Z,23.08
2017-05-07T10:40:06.048Z,27.37
2017-05-07T10:42:33.828Z,26.07
2017-05-07T10:45:02.114Z,24.55
2017-05-07T10:47:30.651Z,19.17
2017-05-07T10:49:58.167Z,22.05
2017-05-07T10:52:26.469Z,22.12
2017-05-07T10:54:53.972Z,20.33
2017-05-07T10:57:23.493Z,23.08
2017-05-07T10:59:52.207Z,22.60
2017-05-07T11:02:19.841Z,21.60
2017-05-07T11:04:47.344Z,24.55
2017-05-07T11:07:14.944Z,24.13
2017-05-07T11:09:42.622Z,25.73
2017-05-07T11:12:10.986Z,24.30
2017-05-07T11:14:39.275Z,25.80
2017-05-07T11:17:07.567Z,25.12
2017-05-07T11:19:35.115Z,21.75
2017-05-07T11:22:02.615Z,24.08
2017-05-07T11:24:30.283Z,20.85
2017-05-07T11:26:57.858Z,21.80
2017-05-07T11:29:27.329Z,21.98
2017-05-07T11:31:56.726Z,21.25
2017-05-07T11:34:24.259Z,16.60
2017-05-07T11:36:51.992Z,22.05
2017-05-07T11:39:20.622Z,18.02
2017-05-07T11:41:48.176Z,20.58
2017-05-07T11:44:15.691Z,19.87
2017-05-07T11:46:43.220Z,19.38
2017-05-07T11:49:10.741Z,20.73
2017-05-07T11:51:38.278Z,21.40
2017-05-07T11:54:05.848Z,19.83
2017-05-07T11:56:34.273Z,21.17
2017-05-07T11:59:02.448Z,21.15
2017-05-07T12:01:30.032Z,20.90
2017-05-07T12:03:58.356Z,21.43
2017-05-07T12:06:25.883Z,23.02
2017-05-07T12:08:53.556Z,23.40
2017-05-07T12:11:22.048Z,24.93
2017-05-07T12:13:50.327Z,25.73
2017-05-07T12:16:17.887Z,23.88
2017-05-07T12:18:45.415Z,23.22
2017-05-07T12:21:12.930Z,26.17
2017-05-07T12:23:40.484Z,23.80
2017-05-07T12:26:08.746Z,23.58
2017-05-07T12:28:37.803Z,23.85
2017-05-07T12:31:06.356Z,26.95
2017-05-07T12:33:34.680Z,21.98
2017-05-07T12:36:02.439Z,24.55
2017-05-07T12:38:29.999Z,26.12
2017-05-07T12:40:57.570Z,21.37
2017-05-07T12:43:26.602Z,25.02
2017-05-07T12:45:54.961Z,27.10
2017-05-07T12:48:22.493Z,23.62
2017-05-07T12:50:51.604Z,23.23
2017-05-07T12:53:20.678Z,29.93
2017-05-07T12:55:48.944Z,25.15
2017-05-07T12:58:17.251Z,22.98
2017-05-07T13:00:44.752Z,23.17
2017-05-07T13:03:13.352Z,25.10
2017-05-07T13:05:41.645Z,22.40
2017-05-07T13:08:10.689Z,23.90
2017-05-07T13:10:38.513Z,24.73
2017-05-07T13:13:07.567Z,20.25
2017-05-07T13:15:35.441Z,19.58
2017-05-07T13:18:03.715Z,18.02
2017-05-07T13:20:32.323Z,19.47
2017-05-07T13:23:00.587Z,20.18
2017-05-07T13:25:28.439Z,21.90
2017-05-07T13:27:56.760Z,17.80
2017-05-07T13:30:25.419Z,19.90
2017-05-07T13:32:52.917Z,19.55
2017-05-07T13:35:21.216Z,19.48
2017-05-07T13:37:49.831Z,19.15
2017-05-07T13:40:17.336Z,18.70
2017-05-07T13:42:45.636Z,21.15
2017-05-07T13:45:13.913Z,16.95
2017-05-07T13:47:41.431Z,20.28
2017-05-07T13:50:10.060Z,21.23
2017-05-07T13:52:37.609Z,20.45
2017-05-07T13:55:06.129Z,20.58
2017-05-07T13:57:34.417Z,16.32
2017-05-07T14:00:02.691Z,17.73
2017-05-07T14:02:31.025Z,19.10
2017-05-07T14:04:58.556Z,17.15
2017-05-07T14:07:26.846Z,16.73
2017-05-07T14:09:54.610Z,15.07
2017-05-07T14:12:22.902Z,16.50
2017-05-07T14:14:50.474Z,16.50
2017-05-07T14:17:19.507Z,18.47
2017-05-07T14:19:48.120Z,18.53
2017-05-07T14:22:15.635Z,17.55
2017-05-07T14:24:43.175Z,19.22
2017-05-07T14:27:11.667Z,16.30
2017-05-07T14:29:40.033Z,17.88
2017-05-07T14:32:08.311Z,21.97
2017-05-07T14:34:36.607Z,18.72
2017-05-07T14:37:05.223Z,17.50
2017-05-07T14:39:33.089Z,16.42
2017-05-07T14:42:00.596Z,15.72
2017-05-07T14:44:28.920Z,15.25
2017-05-07T14:46:56.423Z,16.90
2017-05-07T14:49:24.795Z,12.47
2017-05-07T14:51:53.093Z,13.73
2017-05-07T14:54:20.631Z,16.48
2017-05-07T14:56:48.896Z,12.37
2017-05-07T14:59:16.417Z,15.47
2017-05-07T15:01:44.733Z,13.85
2017-05-07T15:04:13.051Z,14.67
2017-05-07T15:06:41.508Z,14.73
2017-05-07T15:09:09.303Z,13.42
2017-05-07T15:11:37.892Z,13.10
2017-05-07T15:14:06.243Z,14.18
2017-05-07T15:16:33.900Z,13.62
2017-05-07T15:19:01.590Z,15.42
2017-05-07T15:21:29.107Z,14.25
2017-05-07T15:23:56.613Z,13.38
2017-05-07T15:26:24.487Z,13.68
2017-05-07T15:28:53.552Z,13.95
2017-05-07T15:31:21.079Z,12.38
2017-05-07T15:33:48.585Z,15.00
2017-05-07T15:36:16.460Z,15.57
2017-05-07T15:38:45.477Z,13.98
2017-05-07T15:41:14.004Z,18.07
2017-05-07T15:43:41.571Z,18.52
2017-05-07T15:46:09.890Z,15.60
2017-05-07T15:48:38.231Z,13.55
2017-05-07T15:51:05.946Z,15.25
2017-05-07T15:53:33.480Z,15.17
2017-05-07T15:56:01.777Z,12.93
2017-05-07T15:58:29.287Z,14.38
2017-05-07T16:00:58.355Z,16.47
2017-05-07T16:03:26.643Z,16.73
2017-05-07T16:05:54.192Z,15.98
2017-05-07T16:08:21.698Z,19.65
2017-05-07T16:10:49.987Z,14.45
2017-05-07T16:13:17.508Z,15.63
2017-05-07T16:15:45.024Z,17.17
2017-05-07T16:24:33.489Z,15.63
2017-05-07T16:27:07.904Z,17.72
2017-05-07T16:29:53.140Z,16.62
2017-05-07T16:32:20.697Z,17.07
2017-05-07T16:34:48.200Z,15.83
2017-05-07T16:37:16.514Z,19.62
2017-05-07T16:39:44.088Z,16.83
2017-05-07T16:42:28.011Z,17.42
2017-05-07T16:44:55.531Z,17.20
2017-05-07T16:47:23.029Z,13.40
2017-05-07T16:49:51.375Z,12.97
2017-05-07T16:52:19.968Z,12.55
2017-05-07T16:54:48.284Z,14.85
2017-05-07T16:57:16.617Z,12.60
2017-05-07T16:59:44.904Z,11.43
2017-05-07T17:02:12.447Z,12.25
2017-05-07T17:04:40.760Z,14.35
2017-05-07T17:07:15.403Z,14.75
2017-05-07T17:09:44.031Z,11.15
2017-05-07T17:12:12.308Z,13.58
2017-05-07T17:14:40.599Z,13.20
2017-05-07T17:17:08.183Z,11.05
2017-05-07T17:19:36.480Z,12.13
2017-05-07T17:22:04.339Z,13.97
2017-05-07T17:24:32.652Z,12.12
2017-05-07T17:27:00.232Z,12.34
2017-05-07T17:29:28.529Z,11.50
2017-05-07T17:31:56.059Z,12.23
2017-05-07T17:34:24.419Z,12.83
2017-05-07T17:36:53.009Z,12.50
2017-05-07T17:39:21.310Z,15.00
2017-05-07T17:41:48.850Z,12.77
2017-05-07T17:44:17.119Z,12.35
2017-05-07T17:46:45.643Z,13.93
2017-05-07T17:49:15.129Z,15.08
2017-05-07T17:51:43.451Z,13.12
2017-05-07T17:54:10.955Z,11.62
2017-05-07T17:56:40.222Z,13.30
2017-05-07T17:59:07.841Z,17.73
2017-05-07T18:01:37.464Z,14.87
2017-05-07T18:04:05.459Z,15.00
2017-05-07T18:06:33.760Z,13.13
2017-05-07T18:09:01.364Z,12.08
2017-05-07T18:11:28.879Z,14.10
2017-05-07T18:13:58.244Z,11.25
2017-05-07T18:16:25.787Z,15.73
2017-05-07T18:18:53.639Z,12.22
2017-05-07T18:21:21.487Z,15.42
2017-05-07T18:23:49.959Z,14.95
2017-05-07T18:26:18.260Z,11.73
2017-05-07T18:28:45.803Z,11.60
2017-05-07T18:31:13.303Z,14.20
2017-05-07T18:33:40.892Z,12.43
2017-05-07T18:36:08.644Z,12.93
2017-05-07T18:38:37.727Z,11.43
2017-05-07T18:41:05.283Z,12.02
2017-05-07T18:43:32.929Z,15.72
2017-05-07T18:46:00.802Z,17.73
2017-05-07T18:48:28.568Z,14.90
2017-05-07T18:50:56.184Z,12.47
2017-05-07T18:53:24.703Z,11.52
2017-05-07T18:55:52.343Z,16.63
2017-05-07T18:58:20.351Z,13.82
2017-05-07T19:00:47.920Z,11.90
2017-05-07T19:03:16.676Z,15.57
2017-05-07T19:05:44.216Z,12.07
2017-05-07T19:08:11.924Z,13.53
2017-05-07T19:10:40.248Z,13.12
2017-05-07T19:13:08.511Z,14.50
2017-05-07T19:15:36.047Z,15.03
2017-05-07T19:18:04.400Z,13.08
2017-05-07T19:20:33.595Z,13.10
2017-05-07T19:23:01.332Z,12.08
2017-05-07T19:25:29.036Z,12.88
2017-05-07T19:27:56.776Z,15.55
2017-05-07T19:30:24.305Z,16.05
2017-05-07T19:32:52.703Z,18.32
2017-05-07T19:35:21.389Z,14.63
2017-05-07T19:37:50.335Z,14.90
2017-05-07T19:40:18.015Z,17.53
2017-05-07T19:42:46.527Z,17.13
2017-05-07T19:45:14.062Z,16.83
2017-05-07T19:47:42.418Z,14.07
2017-05-07T19:50:10.433Z,14.83
2017-05-07T19:52:38.980Z,15.95
2017-05-07T19:55:07.496Z,13.72
2017-05-07T19:57:35.934Z,12.58
2017-05-07T20:00:04.412Z,16.07
2017-05-07T20:02:33.080Z,15.97
2017-05-07T20:05:01.631Z,16.62
2017-05-07T20:07:30.382Z,23.18
2017-05-07T20:10:00.180Z,35.03
2017-05-07T20:12:28.234Z,34.37
2017-05-07T20:14:55.861Z,32.23
2017-05-07T20:17:24.612Z,31.07
2017-05-07T20:19:53.057Z,32.13
2017-05-07T20:22:20.597Z,29.32
2017-05-07T20:24:48.700Z,22.25
2017-05-07T20:27:17.348Z,22.25
2017-05-07T20:29:44.876Z,19.32
2017-05-07T20:32:12.903Z,21.40
2017-05-07T20:34:41.883Z,17.90
2017-05-07T20:37:10.415Z,20.48
2017-05-07T20:39:38.241Z,18.10
2017-05-07T20:42:05.792Z,17.77
2017-05-07T20:44:34.071Z,18.00
2017-05-07T20:47:02.401Z,16.17
2017-05-07T20:49:30.969Z,16.22
2017-05-07T20:51:58.472Z,17.53
2017-05-07T20:54:26.828Z,20.30
2017-05-07T20:56:54.395Z,17.45
2017-05-07T20:59:22.744Z,15.32
2017-05-07T21:01:51.057Z,15.53
2017-05-07T21:04:18.568Z,18.13
2017-05-07T21:06:46.884Z,15.57
2017-05-07T21:09:14.420Z,15.78
2017-05-07T21:11:42.765Z,16.87
2017-05-07T21:14:12.087Z,14.00
2017-05-07T21:16:40.427Z,15.68
2017-05-07T21:19:07.959Z,17.90
2017-05-07T21:21:35.484Z,19.68
2017-05-07T21:24:03.784Z,17.28
2017-05-07T21:26:31.361Z,18.25
2017-05-07T21:28:59.671Z,14.85
2017-05-07T21:31:27.221Z,16.73
2017-05-07T21:33:54.789Z,17.75
2017-05-07T21:36:22.343Z,17.33
2017-05-07T21:38:49.960Z,16.48
2017-05-07T21:41:17.537Z,17.13
2017-05-07T21:43:45.051Z,15.82
2017-05-07T21:46:12.579Z,16.92
2017-05-07T21:48:40.095Z,14.03
2017-05-07T21:51:07.631Z,15.90
2017-05-07T21:53:35.976Z,16.20
2017-05-07T21:56:04.279Z,15.98
2017-05-07T21:58:31.804Z,15.22
2017-05-07T22:01:00.377Z,17.17
2017-05-07T22:03:29.479Z,15.15
2017-05-07T22:05:56.976Z,16.92
2017-05-07T22:08:24.546Z,16.33
2017-05-07T22:10:52.070Z,15.30
2017-05-07T22:13:19.572Z,16.33
2017-05-07T22:15:47.136Z,15.42
2017-05-07T22:18:14.640Z,17.07
2017-05-07T22:20:43.079Z,18.65
2017-05-07T22:23:12.100Z,14.90
2017-05-07T22:25:40.431Z,18.63
2017-05-07T22:28:08.283Z,14.52
2017-05-07T22:30:35.845Z,14.50
2017-05-07T22:33:03.374Z,14.88
2017-05-07T22:35:31.165Z,16.12
2017-05-07T22:37:58.728Z,17.55
2017-05-07T22:40:26.603Z,16.70
2017-05-07T22:42:54.101Z,15.47
2017-05-07T22:45:22.728Z,14.78
2017-05-07T22:47:50.248Z,16.62
2017-05-07T22:50:17.828Z,16.37
2017-05-07T22:52:45.605Z,14.25
2017-05-07T22:55:13.127Z,16.12
2017-05-07T22:57:40.628Z,15.98
2017-05-07T23:00:08.479Z,14.72
2017-05-07T23:02:36.347Z,15.82
2017-05-07T23:05:04.619Z,16.98
2017-05-07T23:07:32.931Z,16.07
2017-05-07T23:10:00.434Z,14.55
2017-05-07T23:12:28.072Z,14.05
2017-05-07T23:14:56.339Z,15.15
2017-05-07T23:17:24.663Z,13.50
2017-05-07T23:19:52.961Z,13.25
2017-05-07T23:22:22.232Z,15.08
2017-05-07T23:24:49.724Z,13.55
2017-05-07T23:27:18.749Z,13.47
2017-05-07T23:29:46.243Z,16.58
2017-05-07T23:32:14.576Z,14.07
2017-05-07T23:34:42.145Z,14.45
2017-05-07T23:37:09.934Z,15.45
2017-05-07T23:39:37.473Z,16.72
2017-05-07T23:42:05.003Z,16.32
2017-05-07T23:44:33.528Z,18.20
2017-05-07T23:47:01.832Z,17.57
2017-05-07T23:49:29.352Z,20.85
2017-05-07T23:51:56.843Z,19.88
2017-05-07T23:54:24.457Z,17.38
2017-05-07T23:56:52.738Z,16.37
2017-05-07T23:59:20.511Z,14.63
